Time;durP1;ratioP1;P1;durP2;ratioP2;P2;SDS_P1;SDS_P2;PMS_P1;PMS_P2;Temp;Humidity;BMP_temperature;BMP_pressure;BME280_temperature;BME280_humidity;BME280_pressure;Samples;Min_cycle;Max_cycle;Signal;HPM_P1;HPM_P2
2021/07/14 00:00:39;;;;;;;10.88;7.30;;;;;;;27.05;48.22;99638.28;6071260;23;20037;-68
2021/07/14 00:03:05;;;;;;;18.88;7.28;;;;;;;27.03;48.18;99638.03;6070772;23;20011;-68
2021/07/14 00:05:32;;;;;;;14.45;8.38;;;;;;;27.02;48.12;99633.59;6072717;23;20271;-69
2021/07/14 00:07:58;;;;;;;18.15;7.95;;;;;;;27.02;48.21;99642.22;6072812;23;20061;-69
2021/07/14 00:10:30;;;;;;;13.43;7.15;;;;;;;26.99;48.33;99644.09;6073049;23;20007;-68
2021/07/14 00:23:16;;;;;;;13.52;7.90;;;;;;;26.94;48.19;99649.88;6073066;23;20039;-68
2021/07/14 00:25:42;;;;;;;12.07;7.78;;;;;;;26.93;48.09;99642.53;6072717;23;20007;-69
2021/07/14 00:28:07;;;;;;;21.63;8.30;;;;;;;26.95;48.25;99645.66;6073120;23;20007;-68
2021/07/14 00:30:36;;;;;;;18.50;8.35;;;;;;;26.93;48.41;99642.53;6072863;23;20030;-68
2021/07/14 00:33:01;;;;;;;13.18;7.50;;;;;;;26.90;48.40;99637.84;6072960;23;20338;-69
2021/07/14 00:35:26;;;;;;;10.57;8.18;;;;;;;26.88;48.38;99637.59;6072742;23;20022;-68
2021/07/14 00:37:52;;;;;;;12.63;8.68;;;;;;;26.84;48.12;99628.44;6072684;23;20010;-67
2021/07/14 00:40:18;;;;;;;18.25;8.70;;;;;;;26.82;48.25;99634.72;6072887;23;20040;-67
2021/07/14 00:42:45;;;;;;;13.90;7.63;;;;;;;26.79;48.55;99639.47;6072649;23;20015;-67
2021/07/14 00:45:12;;;;;;;19.52;8.13;;;;;;;26.77;48.61;99636.34;6072558;23;20058;-67
2021/07/14 00:47:43;;;;;;;17.50;8.38;;;;;;;26.75;48.50;99638.97;6072848;23;20013;-67
2021/07/14 00:50:09;;;;;;;18.17;8.23;;;;;;;26.72;48.57;99640.03;6072638;23;20237;-69
2021/07/14 00:52:36;;;;;;;13.48;8.13;;;;;;;26.70;48.75;99630.34;6072822;23;20007;-68
2021/07/14 00:55:03;;;;;;;16.48;8.95;;;;;;;26.69;48.50;99629.56;6071527;23;20010;-67
2021/07/14 00:57:29;;;;;;;12.88;8.52;;;;;;;26.69;48.58;99629.56;6072788;23;20007;-67
2021/07/14 00:59:55;;;;;;;16.40;8.65;;;;;;;26.69;48.41;99628.78;6072615;23;20010;-68
2021/07/14 01:02:22;;;;;;;16.48;8.35;;;;;;;26.66;48.57;99622.00;6072778;23;20011;-67
2021/07/14 01:04:54;;;;;;;18.25;9.13;;;;;;;26.66;48.38;99630.66;6072162;23;20015;-67
2021/07/14 01:07:24;;;;;;;18.15;9.13;;;;;;;26.61;48.74;99628.59;6072695;23;20006;-68
2021/07/14 01:10:02;;;;;;;14.25;9.13;;;;;;;26.61;48.46;99628.59;6072517;23;20065;-67
2021/07/14 01:12:42;;;;;;;13.90;8.35;;;;;;;26.61;48.50;99634.34;6072521;23;20003;-67
2021/07/14 01:15:14;;;;;;;19.45;10.25;;;;;;;26.60;48.51;99626.25;6072407;23;20006;-67
2021/07/14 01:17:57;;;;;;;15.40;8.85;;;;;;;26.58;48.55;99614.47;6072480;23;20010;-67
2021/07/14 01:20:29;;;;;;;10.63;9.13;;;;;;;26.59;48.46;99624.66;6072058;23;20011;-67
2021/07/14 01:23:05;;;;;;;;;;;;;;;26.60;48.32;99618.38;6072970;23;20035;-67
2021/07/14 01:25:52;;;;;;;14.40;8.70;;;;;;;26.60;48.26;99615.50;6072492;23;19909;-67
2021/07/14 01:28:24;;;;;;;10.18;8.77;;;;;;;26.62;48.18;99618.63;6072393;23;20241;-67
2021/07/14 01:30:51;;;;;;;16.35;9.15;;;;;;;26.62;48.11;99614.97;6072191;23;20090;-67
2021/07/14 01:33:21;;;;;;;18.02;9.00;;;;;;;26.64;48.01;99623.84;6072003;23;20046;-67
2021/07/14 01:35:48;;;;;;;13.32;8.85;;;;;;;26.60;48.10;99621.25;6072323;23;20054;-67
2021/07/14 01:38:18;;;;;;;14.30;8.55;;;;;;;26.58;48.27;99623.88;6072259;23;20034;-67
2021/07/14 01:40:46;;;;;;;13.98;9.30;;;;;;;26.58;48.25;99632.53;6071466;23;20011;-67
2021/07/14 01:43:12;;;;;;;11.20;9.30;;;;;;;26.55;48.09;99630.69;6072063;23;20010;-67
2021/07/14 01:45:39;;;;;;;14.63;8.90;;;;;;;26.56;48.41;99629.38;6072045;23;20006;-67
2021/07/14 01:48:07;;;;;;;13.43;9.50;;;;;;;26.56;48.48;99623.63;6072065;23;20011;-67
2021/07/14 01:50:33;;;;;;;18.75;9.73;;;;;;;26.55;48.45;99619.16;6072621;23;20010;-67
2021/07/14 01:52:59;;;;;;;13.13;9.00;;;;;;;26.55;48.43;99616.28;6071998;23;20109;-67
2021/07/14 01:55:26;;;;;;;12.93;8.73;;;;;;;26.52;48.70;99613.69;6071029;23;20006;-67
2021/07/14 01:57:54;;;;;;;15.00;8.75;;;;;;;26.51;48.60;99610.03;6072163;23;20007;-67
2021/07/14 02:00:20;;;;;;;15.27;9.10;;;;;;;26.50;48.50;99611.34;6072010;23;20329;-67
2021/07/14 02:03:03;;;;;;;11.48;8.45;;;;;;;26.47;48.56;99613.19;6071492;23;20054;-67
2021/07/14 02:05:31;;;;;;;15.15;9.70;;;;;;;26.51;48.45;99621.53;6071748;23;20027;-67
2021/07/14 02:07:58;;;;;;;14.93;9.18;;;;;;;26.51;48.55;99617.88;6071952;23;20007;-67
2021/07/14 02:10:23;;;;;;;13.95;8.80;;;;;;;26.52;48.37;99619.44;6072168;23;20010;-67
2021/07/14 02:12:51;;;;;;;11.98;9.38;;;;;;;26.47;48.44;99618.94;6071902;23;20034;-71
2021/07/14 02:15:16;;;;;;;14.20;9.15;;;;;;;26.46;48.74;99617.38;6070550;23;20029;-69
2021/07/14 02:17:49;;;;;;;15.50;9.75;;;;;;;26.43;48.49;99624.22;6070500;23;20356;-69
2021/07/14 02:20:17;;;;;;;16.98;9.30;;;;;;;26.41;48.69;99620.31;6070592;23;20299;-70
2021/07/14 02:22:43;;;;;;;18.35;9.20;;;;;;;26.39;48.83;99629.47;6071899;23;20143;-67
2021/07/14 02:25:09;;;;;;;12.68;8.88;;;;;;;26.38;48.64;99621.38;6071936;23;20002;-68
2021/07/14 02:27:36;;;;;;;13.13;9.18;;;;;;;26.37;48.46;99631.31;6070341;23;20011;-68
2021/07/14 02:30:04;;;;;;;11.95;9.13;;;;;;;26.37;48.74;99628.44;6071741;23;20368;-68
2021/07/14 02:32:30;;;;;;;11.70;9.70;;;;;;;26.39;48.76;99625.81;6070262;23;20010;-69
2021/07/14 02:34:56;;;;;;;14.73;10.10;;;;;;;26.39;48.65;99620.84;6071638;23;20026;-68
2021/07/14 02:37:37;;;;;;;15.32;9.52;;;;;;;26.40;48.84;99618.75;6070743;23;20089;-68
2021/07/14 02:40:04;;;;;;;;;;;;;;;26.40;48.73;99624.50;6071061;23;20023;-67
2021/07/14 02:42:32;;;;;;;10.10;9.05;;;;;;;26.37;48.71;99631.31;6071329;23;19913;-68
2021/07/14 02:45:05;;;;;;;11.68;9.82;;;;;;;26.33;48.85;99630.78;6071640;23;20364;-67
2021/07/14 02:47:37;;;;;;;19.92;9.95;;;;;;;26.32;48.73;99641.53;6070077;23;19999;-68
2021/07/14 02:50:17;;;;;;;18.77;10.05;;;;;;;26.30;48.90;99643.38;6071998;23;20007;-67
2021/07/14 02:52:48;;;;;;;10.98;8.95;;;;;;;26.27;48.93;99642.31;6071712;23;20002;-67
2021/07/14 02:55:15;;;;;;;;;;;;;;;26.24;49.12;99639.72;6070837;23;20010;-68
2021/07/14 02:57:44;;;;;;;16.88;9.05;;;;;;;26.24;48.96;99646.25;6071504;23;19943;-70
2021/07/14 03:00:10;;;;;;;21.73;9.43;;;;;;;26.23;48.93;99641.03;6071557;23;20006;-68
2021/07/14 03:02:36;;;;;;;15.02;9.25;;;;;;;26.21;49.13;99643.66;6070800;23;20011;-69
2021/07/14 03:05:03;;;;;;;12.43;9.25;;;;;;;26.18;49.29;99648.38;6071651;23;20003;-70
2021/07/14 03:07:30;;;;;;;15.77;9.25;;;;;;;26.19;49.07;99652.84;6071696;23;20002;-69
2021/07/14 03:09:56;;;;;;;11.95;9.00;;;;;;;26.16;49.19;99646.03;6071052;23;20009;-68
2021/07/14 03:12:24;;;;;;;13.07;9.80;;;;;;;26.16;49.16;99657.56;6071430;23;20003;-68
2021/07/14 03:14:55;;;;;;;9.95;8.65;;;;;;;26.15;49.35;99644.47;6070966;23;20003;-68
2021/07/14 03:17:20;;;;;;;10.75;9.10;;;;;;;26.15;49.26;99641.59;6071466;23;20010;-68
2021/07/14 03:19:48;;;;;;;12.38;8.85;;;;;;;26.13;49.48;99649.97;6071588;23;20003;-68
2021/07/14 03:22:16;;;;;;;12.20;10.18;;;;;;;26.13;49.19;99654.94;6071370;23;20356;-67
2021/07/14 03:24:43;;;;;;;14.27;9.23;;;;;;;26.14;49.10;99662.28;6071163;23;20255;-68
2021/07/14 03:27:11;;;;;;;12.00;9.45;;;;;;;26.15;48.97;99666.72;6071295;23;20006;-68
2021/07/14 03:29:38;;;;;;;15.35;9.38;;;;;;;26.12;49.04;99662.81;6071226;23;20018;-68
2021/07/14 03:32:05;;;;;;;16.85;9.25;;;;;;;26.13;49.07;99667.25;6071475;23;20026;-69
2021/07/14 03:34:31;;;;;;;13.95;9.10;;;;;;;26.14;49.07;99665.94;6070991;23;20018;-69
2021/07/14 03:37:03;;;;;;;13.13;9.80;;;;;;;26.15;49.03;99673.28;6071070;23;20438;-68
2021/07/14 03:39:28;;;;;;;11.15;9.50;;;;;;;26.16;49.03;99679.81;6072096;23;20003;-69
2021/07/14 03:41:55;;;;;;;13.50;8.68;;;;;;;26.14;49.03;99683.22;6072964;23;20272;-68
2021/07/14 03:44:22;;;;;;;19.08;9.50;;;;;;;26.14;49.09;99676.69;6071894;23;20033;-69
2021/07/14 03:46:48;;;;;;;16.38;8.82;;;;;;;26.13;49.25;99681.66;6073215;23;20007;-68
2021/07/14 03:49:14;;;;;;;11.68;8.88;;;;;;;26.09;49.97;99681.16;6073508;23;20035;-68
2021/07/14 03:51:42;;;;;;;12.35;8.70;;;;;;;26.06;49.74;99678.53;6073407;23;20062;-75
2021/07/14 03:54:09;;;;;;;10.30;8.85;;;;;;;26.02;50.02;99687.44;6073057;23;20034;-73
2021/07/14 03:56:36;;;;;;;13.95;9.45;;;;;;;26.02;50.12;99690.34;6072600;23;20108;-67
2021/07/14 03:59:01;;;;;;;11.27;9.40;;;;;;;26.00;49.91;99684.28;6072229;23;20013;-70
2021/07/14 04:01:28;;;;;;;12.52;9.10;;;;;;;25.97;50.15;99685.34;6073063;23;20030;-68
2021/07/14 04:03:54;;;;;;;11.80;9.07;;;;;;;25.92;50.49;99689.03;6073103;23;20371;-69
2021/07/14 04:06:20;;;;;;;12.80;9.65;;;;;;;25.90;50.69;99693.75;6072979;23;20033;-73
2021/07/14 04:08:59;;;;;;;12.18;9.63;;;;;;;25.85;50.62;99683.81;6072901;23;20030;-67
2021/07/14 04:11:24;;;;;;;14.05;9.43;;;;;;;25.84;50.71;99693.75;6072038;23;20264;-72
2021/07/14 04:13:49;;;;;;;10.43;8.57;;;;;;;25.81;50.88;99684.09;6072765;23;20003;-69
2021/07/14 04:16:15;;;;;;;17.10;8.90;;;;;;;25.81;50.98;99686.19;6072431;23;20077;-69
2021/07/14 04:18:41;;;;;;;16.17;9.90;;;;;;;25.79;51.21;99691.69;6072957;23;20308;-71
2021/07/14 04:21:06;;;;;;;12.32;9.48;;;;;;;25.76;51.60;99686.97;6073018;23;20083;-73
2021/07/14 04:23:31;;;;;;;15.80;9.10;;;;;;;25.71;51.93;99691.41;6072459;23;20003;-74
2021/07/14 04:25:57;;;;;;;13.15;9.63;;;;;;;25.65;52.05;99696.34;6072304;23;20058;-72
2021/07/14 04:28:22;;;;;;;14.10;9.52;;;;;;;25.61;52.21;99692.97;6071750;23;20319;-68
2021/07/14 04:30:48;;;;;;;13.10;9.55;;;;;;;25.60;52.35;99696.38;6072779;23;20006;-70
2021/07/14 04:33:13;;;;;;;17.45;9.98;;;;;;;25.61;52.33;99692.19;6072863;23;20015;-68
2021/07/14 04:35:39;;;;;;;12.02;9.40;;;;;;;25.64;52.41;99682.50;6072851;23;20371;-68
2021/07/14 04:38:05;;;;;;;15.93;8.95;;;;;;;25.68;52.14;99677.28;6071567;23;20058;-66
2021/07/14 04:40:30;;;;;;;15.13;9.75;;;;;;;25.70;52.54;99683.28;6071436;23;20027;-73
2021/07/14 04:42:56;;;;;;;10.65;8.68;;;;;;;25.73;52.27;99670.72;6072160;23;20038;-69
2021/07/14 04:45:21;;;;;;;15.70;9.30;;;;;;;25.71;52.65;99674.13;6070561;23;20003;-69
2021/07/14 04:47:46;;;;;;;10.70;8.77;;;;;;;25.73;52.32;99670.72;6071357;23;20082;-68
2021/07/14 04:50:12;;;;;;;15.40;9.75;;;;;;;25.76;52.35;99669.72;6072054;23;20067;-71
2021/07/14 04:52:37;;;;;;;15.05;8.88;;;;;;;25.81;52.20;99683.31;6072636;23;20271;-69
2021/07/14 04:55:03;;;;;;;13.63;8.75;;;;;;;25.88;51.37;99685.63;6072470;23;20330;-67
2021/07/14 04:57:28;;;;;;;12.68;8.75;;;;;;;25.91;51.24;99684.59;6072399;23;20011;-67
2021/07/14 04:59:53;;;;;;;14.73;9.23;;;;;;;25.97;51.01;99685.34;6071805;23;20018;-67
2021/07/14 05:02:19;;;;;;;12.63;8.23;;;;;;;26.03;51.06;99680.38;6072494;23;20015;-70
2021/07/14 05:04:44;;;;;;;16.45;8.15;;;;;;;26.10;51.12;99685.59;6069469;23;20007;-70
2021/07/14 05:07:10;;;;;;;11.90;9.15;;;;;;;26.14;50.22;99677.47;6070262;23;20007;-69
2021/07/14 05:09:35;;;;;;;14.40;8.77;;;;;;;26.24;50.43;99680.03;6070273;23;20078;-71
2021/07/14 05:12:00;;;;;;;13.48;8.57;;;;;;;26.29;50.27;99685.78;6069149;23;20090;-70
2021/07/14 05:14:26;;;;;;;13.13;8.65;;;;;;;26.34;49.96;99673.50;6070167;23;20037;-68
2021/07/14 05:16:51;;;;;;;20.00;8.18;;;;;;;26.37;49.93;99675.31;6068943;23;20094;-68
2021/07/14 05:19:17;;;;;;;14.50;7.78;;;;;;;26.42;49.38;99668.75;6070841;23;20007;-69
2021/07/14 05:21:42;;;;;;;19.52;7.43;;;;;;;26.57;48.84;99668.44;6072417;23;20394;-69
2021/07/14 05:24:09;;;;;;;13.75;8.02;;;;;;;26.60;48.75;99673.13;6072053;23;20086;-68
2021/07/14 05:26:35;;;;;;;16.10;7.93;;;;;;;26.64;48.84;99682.28;6070826;23;20086;-68
2021/07/14 05:29:00;;;;;;;16.77;7.05;;;;;;;26.70;48.18;99685.13;6072115;23;20384;-67
2021/07/14 05:31:25;;;;;;;14.32;8.77;;;;;;;26.78;48.04;99681.13;6072018;23;20284;-68
2021/07/14 05:33:51;;;;;;;17.52;7.13;;;;;;;26.83;48.02;99678.75;6071997;23;20068;-68
2021/07/14 05:36:17;;;;;;;12.63;7.55;;;;;;;26.90;47.93;99684.75;6070126;23;20006;-70
2021/07/14 05:38:42;;;;;;;10.02;6.78;;;;;;;26.93;47.96;99688.66;6071344;23;20330;-69
2021/07/14 05:41:09;;;;;;;19.38;7.75;;;;;;;26.99;48.30;99687.34;6070199;23;20033;-69
2021/07/14 05:43:35;;;;;;;11.15;7.25;;;;;;;27.09;47.90;99679.13;6071475;23;20007;-69
2021/07/14 05:46:00;;;;;;;10.90;6.82;;;;;;;27.17;47.31;99685.94;6071344;23;20002;-68
2021/07/14 05:48:26;;;;;;;17.30;6.65;;;;;;;27.30;46.17;99688.97;6071334;23;20018;-69
2021/07/14 05:50:52;;;;;;;19.33;6.82;;;;;;;27.39;46.44;99690.72;6071370;23;20026;-68
2021/07/14 05:53:18;;;;;;;9.35;6.47;;;;;;;27.46;46.30;99692.25;6070433;23;20007;-70
2021/07/14 05:55:43;;;;;;;13.13;7.28;;;;;;;27.54;45.82;99701.91;6071962;23;20017;-69
2021/07/14 05:58:10;;;;;;;16.40;7.50;;;;;;;27.64;46.03;99694.47;6072234;23;20033;-69
2021/07/14 06:00:37;;;;;;;15.05;7.03;;;;;;;27.76;45.43;99704.63;6072037;23;20234;-69
2021/07/14 06:03:03;;;;;;;13.68;6.72;;;;;;;27.83;45.12;99701.13;6071245;23;20007;-68
2021/07/14 06:05:28;;;;;;;11.63;6.78;;;;;;;27.85;45.05;99703.47;6071034;23;20363;-68
2021/07/14 06:07:53;;;;;;;11.83;6.47;;;;;;;27.92;45.34;99709.44;6071456;23;20376;-68
2021/07/14 06:10:19;;;;;;;12.95;7.00;;;;;;;27.96;45.10;99715.72;6071741;23;20360;-70
2021/07/14 06:12:44;;;;;;;15.57;7.20;;;;;;;28.02;44.96;99712.78;6072000;23;20097;-70
2021/07/14 06:15:10;;;;;;;11.30;6.05;;;;;;;28.14;44.31;99701.88;6071729;23;20003;-70
2021/07/14 06:17:35;;;;;;;13.60;7.03;;;;;;;28.22;43.91;99708.63;6072364;23;20053;-69
2021/07/14 06:20:01;;;;;;;15.80;6.60;;;;;;;28.27;44.04;99710.69;6071951;23;20086;-71
2021/07/14 06:22:27;;;;;;;18.90;7.13;;;;;;;28.36;43.44;99709.53;6071762;23;20065;-70
2021/07/14 06:24:53;;;;;;;14.15;7.35;;;;;;;28.40;43.63;99719.47;6071565;23;20078;-69
2021/07/14 06:27:18;;;;;;;9.30;6.85;;;;;;;28.44;43.90;99722.84;6070152;23;20446;-69
2021/07/14 06:29:44;;;;;;;16.77;7.10;;;;;;;28.57;43.39;99728.75;6071887;23;20007;-70
2021/07/14 06:32:09;;;;;;;18.52;7.22;;;;;;;28.62;43.17;99730.78;6071826;23;20114;-70
2021/07/14 06:34:35;;;;;;;20.77;7.50;;;;;;;28.73;42.83;99723.28;6071682;23;20094;-70
2021/07/14 06:37:00;;;;;;;18.13;7.15;;;;;;;28.78;42.81;99734.78;6071717;23;20054;-69
2021/07/14 06:39:25;;;;;;;36.15;8.30;;;;;;;28.86;42.67;99718.41;6071346;23;20319;-69
2021/07/14 06:41:51;;;;;;;24.58;7.43;;;;;;;28.91;42.51;99737.78;6071845;23;20030;-69
2021/07/14 06:44:16;;;;;;;43.58;8.40;;;;;;;28.91;42.83;99728.31;6071591;23;20007;-69
2021/07/14 06:46:42;;;;;;;18.83;6.78;;;;;;;28.93;42.20;99720.66;6071676;23;20006;-69
2021/07/14 06:49:07;;;;;;;14.80;6.78;;;;;;;28.88;42.70;99723.63;6071737;23;20083;-68
2021/07/14 06:51:32;;;;;;;13.60;7.07;;;;;;;28.86;42.53;99732.09;6070240;23;20007;-70
2021/07/14 06:53:58;;;;;;;11.82;6.85;;;;;;;28.85;42.57;99721.84;6071269;23;19999;-69
2021/07/14 06:56:23;;;;;;;17.52;6.82;;;;;;;28.84;42.91;99734.72;6071769;23;20471;-69
2021/07/14 06:58:49;;;;;;;12.60;6.47;;;;;;;28.82;42.55;99734.47;6071735;23;20006;-70
2021/07/14 07:01:15;;;;;;;13.35;6.18;;;;;;;28.83;43.09;99741.81;6070300;23;20045;-70
2021/07/14 07:03:40;;;;;;;10.55;6.43;;;;;;;28.93;42.75;99729.34;6071795;23;20351;-72
2021/07/14 07:06:06;;;;;;;16.10;7.05;;;;;;;29.00;43.15;99733.72;6071515;23;20066;-69
2021/07/14 07:08:33;;;;;;;27.58;8.10;;;;;;;29.01;42.88;99732.38;6070134;23;20018;-69
2021/07/14 07:10:58;;;;;;;17.77;6.70;;;;;;;29.09;42.11;99726.78;6071565;23;20003;-67
2021/07/14 07:13:24;;;;;;;17.42;6.68;;;;;;;29.13;42.70;99724.34;6071212;23;20010;-69
2021/07/14 07:15:49;;;;;;;20.27;7.43;;;;;;;29.24;42.46;99729.94;6071386;23;20105;-69
2021/07/14 07:18:16;;;;;;;23.98;6.75;;;;;;;29.36;42.09;99736.38;6071357;23;20009;-68
2021/07/14 07:20:42;;;;;;;15.50;6.50;;;;;;;29.36;42.29;99728.47;6071134;23;20009;-69
2021/07/14 07:23:08;;;;;;;15.63;6.63;;;;;;;29.46;41.60;99735.44;6071427;23;20026;-68
2021/07/14 07:25:34;;;;;;;21.52;7.57;;;;;;;29.49;42.31;99725.66;6070056;23;20417;-62
2021/07/14 07:28:02;;;;;;;8.25;6.40;;;;;;;29.58;41.66;99729.44;6071527;23;20081;-62
2021/07/14 07:30:27;;;;;;;9.98;6.70;;;;;;;29.60;42.19;99718.13;6070107;23;20304;-61
2021/07/14 07:32:52;;;;;;;13.13;6.32;;;;;;;29.66;41.56;99722.47;6071134;23;20077;-62
2021/07/14 07:35:18;;;;;;;8.48;5.65;;;;;;;29.71;41.78;99724.50;6071366;23;20499;-62
2021/07/14 07:37:43;;;;;;;12.48;6.55;;;;;;;29.81;41.43;99731.41;6070087;23;20011;-62
2021/07/14 07:40:10;;;;;;;12.98;6.85;;;;;;;29.89;41.74;99722.09;6071044;23;20007;-61
2021/07/14 07:42:35;;;;;;;13.95;6.53;;;;;;;29.97;41.35;99723.00;6071118;23;20379;-61
2021/07/14 07:45:01;;;;;;;14.05;6.75;;;;;;;30.00;40.81;99721.88;6070239;23;20007;-62
2021/07/14 07:47:27;;;;;;;13.82;6.93;;;;;;;30.04;41.13;99717.34;6066746;23;20043;-61
2021/07/14 07:49:52;;;;;;;12.23;6.03;;;;;;;30.16;41.42;99720.06;6069890;23;20264;-62
2021/07/14 07:52:21;;;;;;;13.02;6.78;;;;;;;30.25;40.75;99728.31;6067769;23;20022;-64
2021/07/14 07:54:48;;;;;;;16.40;6.32;;;;;;;30.34;40.46;99725.75;6069022;23;20263;-61
2021/07/14 07:57:14;;;;;;;13.07;6.40;;;;;;;30.42;40.71;99728.78;6070435;23;20006;-61
2021/07/14 07:59:39;;;;;;;17.33;7.13;;;;;;;30.53;40.44;99716.16;6070232;23;20329;-63
2021/07/14 08:02:05;;;;;;;24.58;7.28;;;;;;;30.59;39.93;99716.81;6070730;23;20030;-63
2021/07/14 08:04:32;;;;;;;13.65;6.65;;;;;;;30.64;40.55;99727.53;6070474;23;20014;-65
2021/07/14 08:06:57;;;;;;;11.20;6.25;;;;;;;30.72;40.40;99722.66;6071143;23;20017;-65
2021/07/14 08:09:23;;;;;;;20.88;6.90;;;;;;;30.80;39.50;99732.22;6070936;23;20011;-63
2021/07/14 08:11:49;;;;;;;29.70;8.60;;;;;;;30.78;39.60;99726.19;6070953;23;20007;-65
2021/07/14 08:14:16;;;;;;;15.07;6.68;;;;;;;30.79;39.29;99721.97;6071280;23;20010;-64
2021/07/14 08:16:41;;;;;;;15.55;6.53;;;;;;;30.87;39.23;99737.34;6069826;23;20435;-62
2021/07/14 08:19:07;;;;;;;12.10;6.53;;;;;;;30.93;39.69;99714.00;6071160;23;20078;-61
2021/07/14 08:21:32;;;;;;;13.30;6.63;;;;;;;30.98;39.15;99716.03;6069939;23;20007;-62
2021/07/14 08:23:58;;;;;;;18.85;6.20;;;;;;;31.05;39.34;99727.72;6071430;23;20241;-61
2021/07/14 08:26:23;;;;;;;12.73;6.50;;;;;;;31.14;39.56;99719.88;6072704;23;20007;-65
2021/07/14 08:28:48;;;;;;;18.02;7.43;;;;;;;31.20;39.17;99726.34;6072872;23;20030;-63
2021/07/14 08:31:14;;;;;;;14.60;6.82;;;;;;;31.25;38.76;99714.63;6072944;23;20023;-63
2021/07/14 08:33:39;;;;;;;15.27;6.80;;;;;;;31.30;38.89;99712.94;6073134;23;20265;-62
2021/07/14 08:36:05;;;;;;;22.05;7.43;;;;;;;31.36;38.82;99701.94;6072572;23;20267;-61
2021/07/14 08:38:30;;;;;;;11.95;6.50;;;;;;;31.42;38.76;99720.00;6072771;23;20427;-60
2021/07/14 08:40:58;;;;;;;17.40;6.70;;;;;;;31.45;39.09;99718.88;6072999;23;20014;-61
2021/07/14 08:43:27;;;;;;;14.30;6.60;;;;;;;31.56;39.12;99714.94;6071152;23;20034;-61
2021/07/14 08:45:56;;;;;;;13.27;6.40;;;;;;;31.63;38.91;99706.28;6072919;23;20011;-62
2021/07/14 08:48:21;;;;;;;9.35;6.22;;;;;;;31.70;38.80;99710.59;6072669;23;20010;-62
2021/07/14 08:50:51;;;;;;;17.42;6.70;;;;;;;31.82;38.40;99705.34;6072662;23;20359;-62
2021/07/14 08:53:18;;;;;;;9.45;6.03;;;;;;;31.90;38.14;99701.13;6072068;23;20245;-63
2021/07/14 08:55:46;;;;;;;17.27;6.85;;;;;;;32.06;36.93;99704.16;6072195;23;20048;-61
2021/07/14 08:58:19;;;;;;;11.18;6.40;;;;;;;32.14;36.76;99699.97;6072280;23;20002;-61
2021/07/14 09:00:46;;;;;;;22.80;6.65;;;;;;;32.21;36.62;99701.34;6072361;23;20045;-61
2021/07/14 09:03:12;;;;;;;19.10;6.80;;;;;;;32.28;37.09;99701.44;6071966;23;20006;-62
2021/07/14 09:05:37;;;;;;;25.92;6.53;;;;;;;32.36;36.82;99700.72;6072139;23;20086;-61
2021/07/14 09:08:03;;;;;;;10.55;6.88;;;;;;;32.47;36.29;99694.56;6071506;23;20242;-62
2021/07/14 09:10:29;;;;;;;14.20;6.82;;;;;;;32.46;37.02;99693.00;6072665;23;20360;-62
2021/07/14 09:12:56;;;;;;;20.63;6.75;;;;;;;32.51;36.79;99700.78;6072265;23;20011;-61
2021/07/14 09:15:27;;;;;;;14.00;6.20;;;;;;;32.54;36.85;99690.91;6072639;23;20052;-62
2021/07/14 09:17:53;;;;;;;24.67;7.40;;;;;;;32.60;36.57;99694.47;6072370;23;20022;-61
2021/07/14 09:20:23;;;;;;;20.83;6.70;;;;;;;32.69;35.96;99698.97;6072377;23;20003;-62
2021/07/14 09:23:01;;;;;;;14.00;7.65;;;;;;;32.79;36.18;99694.94;6072555;23;20058;-62
2021/07/14 09:25:27;;;;;;;15.35;6.22;;;;;;;32.91;36.17;99706.28;6072784;23;20011;-61
2021/07/14 09:27:54;;;;;;;15.00;6.60;;;;;;;32.96;35.74;99719.88;6072421;23;20010;-61
2021/07/14 09:30:21;;;;;;;19.73;7.00;;;;;;;33.00;35.46;99712.31;6072391;23;20014;-62
2021/07/14 09:33:01;;;;;;;21.40;6.88;;;;;;;33.10;35.75;99703.78;6072244;23;20003;-62
2021/07/14 09:35:35;;;;;;;15.65;6.70;;;;;;;33.12;35.55;99701.09;6072509;23;20019;-62
2021/07/14 09:38:13;;;;;;;20.15;7.00;;;;;;;33.21;34.89;99702.69;6072306;23;20003;-61
2021/07/14 09:40:40;;;;;;;14.32;7.20;;;;;;;33.21;35.02;99709.28;6072633;23;20296;-61
2021/07/14 09:43:22;;;;;;;19.85;6.88;;;;;;;33.18;35.22;99695.88;6072549;23;20013;-61
2021/07/14 09:45:59;;;;;;;14.50;6.75;;;;;;;33.21;34.97;99697.63;6072120;23;20013;-61
2021/07/14 09:48:27;;;;;;;20.15;6.95;;;;;;;33.30;34.92;99705.03;6072205;23;20435;-62
2021/07/14 09:50:57;;;;;;;12.98;7.03;;;;;;;33.32;35.17;99694.38;6072135;23;20003;-61
2021/07/14 09:53:29;;;;;;;12.43;6.20;;;;;;;33.34;35.04;99682.16;6072738;23;20010;-61
2021/07/14 09:55:57;;;;;;;18.13;7.20;;;;;;;33.55;34.30;99708.22;6072241;23;20011;-61
2021/07/14 09:58:24;;;;;;;12.27;5.90;;;;;;;33.55;34.57;99690.72;6072478;23;20010;-61
2021/07/14 10:01:02;;;;;;;13.43;6.40;;;;;;;33.56;34.70;99686.47;6071947;23;20118;-61
2021/07/14 10:03:32;;;;;;;17.15;7.00;;;;;;;33.64;35.07;99690.16;6071969;23;20015;-61
2021/07/14 10:06:04;;;;;;;14.27;6.97;;;;;;;33.74;34.84;99679.50;6072102;23;20006;-61
2021/07/14 10:08:30;;;;;;;11.30;6.07;;;;;;;33.78;34.64;99694.44;6072180;23;20312;-62
2021/07/14 10:11:13;;;;;;;10.23;6.57;;;;;;;33.80;35.01;99695.41;6072244;23;19999;-62
2021/07/14 10:13:40;;;;;;;10.68;6.45;;;;;;;33.88;34.49;99685.91;6072013;23;20384;-61
2021/07/14 10:16:06;;;;;;;16.90;6.63;;;;;;;33.92;33.66;99690.00;6071647;23;20007;-61
2021/07/14 10:18:32;;;;;;;18.85;7.40;;;;;;;33.96;34.90;99684.53;6072061;23;20014;-61
2021/07/14 10:21:03;;;;;;;18.80;7.43;;;;;;;34.03;33.76;99683.00;6072033;23;20002;-61
2021/07/14 10:23:30;;;;;;;19.67;6.57;;;;;;;34.03;34.43;99680.88;6071746;23;20007;-61
2021/07/14 10:25:59;;;;;;;19.05;7.03;;;;;;;34.07;33.34;99680.47;6071940;23;20037;-61
2021/07/14 10:28:26;;;;;;;12.45;6.68;;;;;;;34.03;33.82;99683.78;6071953;23;20431;-61
2021/07/14 10:30:53;;;;;;;17.70;7.53;;;;;;;34.05;33.79;99695.63;6071493;23;20003;-61
2021/07/14 10:33:20;;;;;;;12.35;6.40;;;;;;;34.00;33.08;99696.59;6071950;23;20019;-62
2021/07/14 10:35:50;;;;;;;20.13;7.07;;;;;;;34.00;33.42;99696.59;6072220;23;20007;-62
2021/07/14 10:38:24;;;;;;;17.30;6.75;;;;;;;34.05;34.76;99692.72;6071867;23;20413;-61
2021/07/14 10:40:52;;;;;;;9.32;6.55;;;;;;;34.10;34.01;99703.41;6071885;23;20392;-62
2021/07/14 10:43:21;;;;;;;13.13;6.30;;;;;;;34.16;32.32;99702.41;6072214;23;20268;-62
2021/07/14 10:45:48;;;;;;;21.67;6.90;;;;;;;34.19;32.46;99698.31;6071362;23;20078;-62
2021/07/14 10:48:19;;;;;;;8.27;6.18;;;;;;;34.18;32.92;99693.84;6072112;23;20272;-61
2021/07/14 10:50:47;;;;;;;14.98;6.38;;;;;;;34.25;33.09;99704.75;6071732;23;20007;-61
2021/07/14 10:53:13;;;;;;;14.77;7.00;;;;;;;34.28;33.72;99701.44;6071949;23;20013;-62
2021/07/14 10:55:40;;;;;;;11.60;6.50;;;;;;;34.25;32.93;99698.91;6071708;23;20003;-61
2021/07/14 10:58:07;;;;;;;13.32;6.55;;;;;;;34.24;33.89;99706.09;6071822;23;20010;-62
2021/07/14 11:00:40;;;;;;;15.70;6.00;;;;;;;34.23;33.37;99711.16;6071463;23;20775;-62
2021/07/14 11:03:06;;;;;;;15.98;6.75;;;;;;;34.20;32.82;99708.63;6071649;23;20002;-62
2021/07/14 11:05:43;;;;;;;14.45;6.53;;;;;;;34.20;32.96;99696.97;6071635;23;20066;-61
2021/07/14 11:08:09;;;;;;;13.85;6.78;;;;;;;34.19;33.83;99689.56;6071765;23;20009;-61
2021/07/14 11:10:39;;;;;;;15.20;6.65;;;;;;;34.19;34.48;99692.50;6071640;23;20039;-61
2021/07/14 11:13:40;;;;;;;16.30;6.28;;;;;;;34.17;33.29;99680.63;6070015;23;20368;-62
2021/07/14 11:16:25;;;;;;;12.15;6.00;;;;;;;34.14;33.25;99675.97;6025421;23;20119;-62
2021/07/14 11:19:18;;;;;;;18.10;6.68;;;;;;;34.17;33.36;99677.72;6071874;23;20058;-61
2021/07/14 11:21:57;;;;;;;19.27;7.38;;;;;;;34.19;33.87;99677.91;6071596;23;20312;-62
2021/07/14 11:24:54;;;;;;;13.52;6.05;;;;;;;34.20;33.96;99667.78;6071538;23;20007;-62
2021/07/14 11:27:22;;;;;;;14.98;6.88;;;;;;;34.18;33.35;99671.31;6070211;23;20007;-61
2021/07/14 11:30:11;;;;;;;19.58;8.52;;;;;;;34.14;33.51;99664.31;6071081;23;20014;-62
2021/07/14 11:32:40;;;;;;;14.18;6.05;;;;;;;34.12;34.18;99667.03;6059890;23;20018;-62
2021/07/14 11:35:15;;;;;;;18.52;6.57;;;;;;;34.07;33.87;99657.13;6071181;23;20044;-62
2021/07/14 11:37:50;;;;;;;12.60;6.10;;;;;;;34.08;33.90;99655.78;6071548;23;20003;-62
2021/07/14 11:40:18;;;;;;;12.35;6.20;;;;;;;34.10;33.58;99665.50;6071293;23;20003;-62